Time;durP1;ratioP1;P1;durP2;ratioP2;P2;SDS_P1;SDS_P2;PMS_P1;PMS_P2;Temp;Humidity;BMP_temperature;BMP_pressure;BME280_temperature;BME280_humidity;BME280_pressure;Samples;Min_cycle;Max_cycle;Signal;HPM_P1;HPM_P2
2020/12/23 00:01:43;;;;;;;200.00;73.35;;;;;;;1.38;100.00;101983.66;5054636;28;20115;-79
2020/12/23 00:04:09;;;;;;;201.50;75.93;;;;;;;1.34;100.00;101990.94;5054738;28;20028;-79
2020/12/23 00:06:34;;;;;;;203.07;76.47;;;;;;;1.38;100.00;101988.91;5054509;28;20498;-79
2020/12/23 00:09:03;;;;;;;202.85;75.95;;;;;;;1.51;100.00;101994.91;5053835;28;20029;-79
2020/12/23 00:11:28;;;;;;;210.73;75.53;;;;;;;1.52;100.00;101986.09;5060726;28;20097;-79
2020/12/23 00:13:53;;;;;;;192.02;72.88;;;;;;;1.56;100.00;101991.94;5053930;28;20469;-78
2020/12/23 00:16:19;;;;;;;196.73;78.10;;;;;;;1.51;100.00;101984.44;5054170;28;20025;-79
2020/12/23 00:18:44;;;;;;;191.23;72.70;;;;;;;1.38;100.00;101981.88;5055424;28;20024;-79
2020/12/23 00:21:09;;;;;;;184.15;70.95;;;;;;;1.47;100.00;101987.38;5053973;28;20458;-80
2020/12/23 00:23:35;;;;;;;173.52;65.05;;;;;;;1.54;100.00;101992.06;5053291;28;20079;-79
2020/12/23 00:26:01;;;;;;;145.85;51.38;;;;;;;1.58;100.00;102000.50;5053987;28;20170;-77
2020/12/23 00:28:26;;;;;;;134.98;48.67;;;;;;;1.64;100.00;101997.44;5055459;28;20524;-79
2020/12/23 00:30:52;;;;;;;126.50;47.75;;;;;;;1.67;100.00;101991.97;5054730;28;20017;-79
2020/12/23 00:33:17;;;;;;;130.23;49.00;;;;;;;1.68;100.00;101993.63;5053913;28;20036;-79
2020/12/23 00:35:42;;;;;;;132.98;50.25;;;;;;;1.60;100.00;101990.75;5053968;28;20032;-79
2020/12/23 00:38:08;;;;;;;123.82;47.45;;;;;;;1.64;100.00;101975.66;5053950;28;20032;-78
2020/12/23 00:40:33;;;;;;;119.45;44.50;;;;;;;1.59;100.00;101973.38;5055080;28;20108;-79
2020/12/23 00:42:59;;;;;;;122.07;44.28;;;;;;;1.58;100.00;101971.72;5054619;28;20040;-80
2020/12/23 00:45:24;;;;;;;117.18;43.10;;;;;;;1.53;100.00;101965.97;5053455;28;20059;-79
2020/12/23 00:47:50;;;;;;;112.55;42.03;;;;;;;1.59;100.00;101989.91;5053362;28;20033;-78
2020/12/23 00:50:15;;;;;;;105.80;37.17;;;;;;;1.52;100.00;101967.75;5053756;28;20028;-79
2020/12/23 00:52:41;;;;;;;94.93;37.53;;;;;;;1.66;100.00;101961.47;5054171;28;20374;-79
2020/12/23 00:55:06;;;;;;;101.50;41.42;;;;;;;1.58;100.00;101958.63;5053504;28;20485;-79
2020/12/23 00:57:31;;;;;;;98.03;36.70;;;;;;;1.62;100.00;101960.03;5054448;28;20087;-79
2020/12/23 00:59:57;;;;;;;85.32;33.50;;;;;;;1.61;100.00;101961.00;5053034;28;20391;-79
2020/12/23 01:02:22;;;;;;;89.53;33.58;;;;;;;1.65;100.00;101946.69;5052269;28;20112;-79
2020/12/23 01:04:47;;;;;;;92.07;35.50;;;;;;;1.69;100.00;101949.91;5053181;28;20028;-79
2020/12/23 01:07:13;;;;;;;85.63;33.30;;;;;;;1.64;100.00;101944.22;5054377;28;20103;-79
2020/12/23 01:09:38;;;;;;;91.82;31.63;;;;;;;1.67;100.00;101946.59;5053649;28;20037;-79
2020/12/23 01:12:03;;;;;;;94.60;33.13;;;;;;;1.57;100.00;101957.78;5053615;28;20115;-79
2020/12/23 01:14:29;;;;;;;96.28;32.55;;;;;;;1.67;100.00;101967.56;5052576;28;20025;-78
2020/12/23 01:16:54;;;;;;;88.57;32.58;;;;;;;1.69;100.00;101970.88;5053433;28;20135;-79
2020/12/23 01:19:20;;;;;;;86.35;30.48;;;;;;;1.74;100.00;101972.19;5053995;28;20121;-78
2020/12/23 01:21:45;;;;;;;89.60;32.60;;;;;;;1.71;100.00;101969.81;5052757;28;20470;-79
2020/12/23 01:24:11;;;;;;;87.28;32.22;;;;;;;1.72;100.00;101957.53;5043123;28;20039;-79
2020/12/23 01:26:37;;;;;;;97.78;34.13;;;;;;;1.75;100.00;101952.91;5053404;28;20079;-79
2020/12/23 01:29:02;;;;;;;92.05;32.85;;;;;;;1.71;100.00;101943.63;5053464;28;20454;-78
2020/12/23 01:31:28;;;;;;;84.38;32.70;;;;;;;1.76;100.00;101946.72;5053498;28;20097;-79
2020/12/23 01:33:53;;;;;;;97.03;34.58;;;;;;;1.73;100.00;101936.47;5053336;28;20025;-78
2020/12/23 01:36:19;;;;;;;95.50;34.53;;;;;;;1.72;100.00;101945.28;5053704;28;20108;-79
2020/12/23 01:38:44;;;;;;;91.40;32.92;;;;;;;1.73;100.00;101952.19;5053262;28;20028;-79
2020/12/23 01:41:10;;;;;;;94.47;32.72;;;;;;;1.65;100.00;101951.94;5052979;28;20039;-80
2020/12/23 01:43:37;;;;;;;97.35;32.55;;;;;;;1.75;100.00;101949.44;5054018;28;20115;-79
2020/12/23 01:46:02;;;;;;;90.05;31.80;;;;;;;1.78;100.00;101943.97;5053033;28;20063;-79
2020/12/23 01:48:32;;;;;;;93.82;33.03;;;;;;;1.78;100.00;101934.31;5052956;28;20028;-79
2020/12/23 01:51:00;;;;;;;85.75;34.67;;;;;;;1.73;100.00;101951.38;5052825;28;20029;-78
2020/12/23 01:53:26;;;;;;;90.80;32.28;;;;;;;1.65;100.00;101941.47;5036485;28;20128;-79
2020/12/23 01:55:52;;;;;;;87.65;31.65;;;;;;;1.70;100.00;101941.97;5047782;28;20139;-78
2020/12/23 01:58:17;;;;;;;102.95;34.03;;;;;;;1.66;100.00;101934.44;5052718;28;20037;-79
2020/12/23 02:00:43;;;;;;;104.53;35.95;;;;;;;1.62;100.00;101939.09;5053914;28;20036;-79
2020/12/23 02:03:13;;;;;;;96.97;33.63;;;;;;;1.67;100.00;101941.38;5053920;28;20025;-78
2020/12/23 02:05:40;;;;;;;104.45;35.10;;;;;;;1.58;100.00;101942.91;5053646;28;20433;-79
2020/12/23 02:08:07;;;;;;;111.07;36.80;;;;;;;1.61;100.00;101934.81;5053440;28;20549;-79
2020/12/23 02:10:32;;;;;;;92.25;32.80;;;;;;;1.63;100.00;101927.66;5052208;28;20386;-79
2020/12/23 02:12:58;;;;;;;99.35;32.67;;;;;;;1.55;100.00;101925.63;5052820;28;20025;-78
2020/12/23 02:15:24;;;;;;;93.63;32.15;;;;;;;1.68;100.00;101925.50;5053491;28;20060;-79
2020/12/23 02:17:49;;;;;;;89.65;31.95;;;;;;;1.70;100.00;101926.25;5053084;28;20053;-79
2020/12/23 02:20:16;;;;;;;83.00;30.20;;;;;;;1.68;100.00;101919.44;5052153;28;20416;-79
2020/12/23 02:22:43;;;;;;;86.65;31.58;;;;;;;1.73;100.00;101930.41;5051767;28;20028;-79
2020/12/23 02:25:09;;;;;;;84.72;30.02;;;;;;;1.76;100.00;101931.00;5052654;28;20068;-79
2020/12/23 02:27:35;;;;;;;83.18;30.83;;;;;;;1.75;100.00;101941.59;5052527;28;20079;-79
2020/12/23 02:30:04;;;;;;;87.00;32.58;;;;;;;1.73;100.00;101940.88;5051224;28;20021;-79
2020/12/23 02:32:29;;;;;;;85.82;31.30;;;;;;;1.76;100.00;101936.25;5051860;28;20462;-79
2020/12/23 02:34:55;;;;;;;84.70;31.30;;;;;;;1.76;100.00;101931.00;5053000;28;20104;-79
2020/12/23 02:37:21;;;;;;;109.03;41.83;;;;;;;1.74;100.00;101925.03;4697388;28;10000023;-79
2020/12/23 02:39:49;;;;;;;88.20;35.30;;;;;;;1.66;100.00;101914.31;5050608;28;20048;-78
2020/12/23 02:42:16;;;;;;;81.70;29.65;;;;;;;1.71;100.00;101916.59;5050189;28;20090;-78
2020/12/23 02:44:42;;;;;;;87.65;31.10;;;;;;;1.58;100.00;101911.47;5053280;28;20108;-79
2020/12/23 02:47:12;;;;;;;78.25;30.00;;;;;;;1.67;100.00;101912.56;5052416;28;20442;-79
2020/12/23 02:49:39;;;;;;;86.03;32.67;;;;;;;1.73;100.00;101899.81;5049565;28;20098;-78
2020/12/23 02:52:05;;;;;;;82.32;31.35;;;;;;;1.72;100.00;101910.38;5052072;28;20048;-79
2020/12/23 02:54:31;;;;;;;91.40;33.38;;;;;;;1.68;100.00;101911.59;5051852;28;20028;-79
2020/12/23 02:56:57;;;;;;;82.85;31.20;;;;;;;1.67;100.00;101913.38;5052206;28;20036;-79
2020/12/23 02:59:23;;;;;;;84.35;32.70;;;;;;;1.66;100.00;101909.06;5052395;28;20107;-79
2020/12/23 03:01:48;;;;;;;87.78;33.20;;;;;;;1.71;100.00;101900.88;5052408;28;20432;-79
2020/12/23 03:04:14;;;;;;;95.07;32.83;;;;;;;1.59;100.00;101903.47;5051861;28;20056;-79
2020/12/23 03:06:39;;;;;;;81.43;29.35;;;;;;;1.67;100.00;101900.28;5052533;28;20055;-78
2020/12/23 03:09:10;;;;;;;89.40;33.10;;;;;;;1.72;100.00;101899.91;5052130;28;20017;-79
2020/12/23 03:11:36;;;;;;;87.10;32.53;;;;;;;1.74;100.00;101898.00;5052072;28;20087;-80
2020/12/23 03:14:03;;;;;;;80.55;32.55;;;;;;;1.73;100.00;101889.31;5052046;28;20029;-78
2020/12/23 03:16:29;;;;;;;78.72;30.08;;;;;;;1.69;100.00;101884.44;5052034;28;20039;-78
2020/12/23 03:18:54;;;;;;;84.13;31.60;;;;;;;1.72;100.00;101887.66;5052039;28;20029;-79
2020/12/23 03:21:20;;;;;;;77.25;29.58;;;;;;;1.71;100.00;101879.91;5051464;28;20052;-79
2020/12/23 03:23:45;;;;;;;81.38;32.90;;;;;;;1.66;100.00;101876.81;5053023;28;20029;-79
2020/12/23 03:26:11;;;;;;;83.70;33.30;;;;;;;1.64;100.00;101869.09;5051633;28;20039;-79
2020/12/23 03:28:36;;;;;;;79.45;29.65;;;;;;;1.55;100.00;101865.41;5052196;28;20505;-78
2020/12/23 03:31:03;;;;;;;73.80;31.50;;;;;;;1.56;100.00;101872.28;5050909;28;20036;-79
2020/12/23 03:33:28;;;;;;;75.60;27.35;;;;;;;1.53;100.00;101874.31;5050351;28;20063;-79
2020/12/23 03:35:55;;;;;;;69.38;26.08;;;;;;;1.49;100.00;101875.53;5052136;28;20466;-78
2020/12/23 03:38:21;;;;;;;70.78;26.27;;;;;;;1.66;100.00;101866.34;5050976;28;20450;-79
2020/12/23 03:40:46;;;;;;;68.85;26.77;;;;;;;1.63;100.00;101866.56;5048471;28;20036;-79
2020/12/23 03:43:12;;;;;;;75.32;28.23;;;;;;;1.50;100.00;101875.38;5051007;28;20474;-78
2020/12/23 03:45:38;;;;;;;78.22;28.67;;;;;;;1.55;100.00;101873.25;5050845;28;20021;-79
2020/12/23 03:48:04;;;;;;;86.32;29.48;;;;;;;1.49;100.00;101873.72;5050680;28;20028;-79
2020/12/23 03:50:30;;;;;;;80.45;28.17;;;;;;;1.54;100.00;101871.59;5050902;28;20075;-79
2020/12/23 03:52:55;;;;;;;75.45;27.85;;;;;;;1.42;100.00;101866.44;5050664;28;20041;-79
2020/12/23 03:55:21;;;;;;;73.20;30.00;;;;;;;1.47;100.00;101872.19;5050804;28;20104;-79
2020/12/23 03:57:46;;;;;;;74.55;29.13;;;;;;;1.47;100.00;101875.63;5051047;28;20509;-78
2020/12/23 04:00:12;;;;;;;84.25;35.30;;;;;;;1.48;100.00;101874.66;5054504;28;20032;-79
2020/12/23 04:02:39;;;;;;;78.82;32.67;;;;;;;1.47;100.00;101878.25;5054159;28;20052;-79
2020/12/23 04:05:05;;;;;;;77.13;31.13;;;;;;;1.59;100.00;101884.31;5054358;28;20553;-79
2020/12/23 04:07:31;;;;;;;75.22;30.20;;;;;;;1.64;100.00;101879.56;4694721;28;9999932;-78
2020/12/23 04:09:56;;;;;;;79.78;29.45;;;;;;;1.60;100.00;101884.22;5039073;28;20025;-78
2020/12/23 04:12:22;;;;;;;83.22;29.77;;;;;;;1.64;100.00;101882.19;5041416;28;20037;-79
2020/12/23 04:14:48;;;;;;;83.72;30.75;;;;;;;1.67;100.00;101873.25;5043673;28;20651;-78
2020/12/23 04:17:14;;;;;;;81.57;27.77;;;;;;;1.65;100.00;101867.31;5038405;28;20477;-79
2020/12/23 04:19:39;;;;;;;78.05;31.13;;;;;;;1.63;100.00;101877.06;5045473;28;20043;-78
2020/12/23 04:22:05;;;;;;;84.30;31.63;;;;;;;1.65;100.00;101875.16;5044458;28;20059;-78
2020/12/23 04:24:31;;;;;;;145.98;66.85;;;;;;;1.61;100.00;101877.19;5045729;28;20036;-78
2020/12/23 04:26:58;;;;;;;104.35;45.78;;;;;;;1.63;100.00;101884.91;5046930;28;20035;-79
2020/12/23 04:29:24;;;;;;;96.85;40.85;;;;;;;1.60;100.00;101884.22;5042185;28;20098;-78
2020/12/23 04:31:50;;;;;;;221.45;109.97;;;;;;;1.66;100.00;101875.03;5044313;28;20024;-78
2020/12/23 04:34:15;;;;;;;174.68;84.25;;;;;;;1.64;100.00;101870.88;5045162;28;20033;-78
2020/12/23 04:36:41;;;;;;;119.13;51.63;;;;;;;1.57;100.00;101873.13;5046763;28;20523;-79
2020/12/23 04:39:07;;;;;;;96.13;44.38;;;;;;;1.51;100.00;101873.59;5045136;28;20119;-78
2020/12/23 04:41:36;;;;;;;86.65;33.90;;;;;;;1.59;100.00;101871.22;5048444;28;20078;-79
2020/12/23 04:44:05;;;;;;;76.70;28.48;;;;;;;1.62;100.00;101868.38;5046794;28;20359;-79
2020/12/23 04:46:41;;;;;;;78.68;31.00;;;;;;;1.60;100.00;101868.50;5042205;28;20041;-79
2020/12/23 04:49:08;;;;;;;84.40;31.15;;;;;;;1.60;100.00;101865.03;5047219;28;20090;-78
2020/12/23 04:51:38;;;;;;;85.38;32.72;;;;;;;1.66;100.00;101864.53;5047220;28;20699;-79
2020/12/23 04:54:06;;;;;;;94.22;38.47;;;;;;;1.64;100.00;101858.63;5042630;28;20531;-79
2020/12/23 04:56:33;;;;;;;88.32;35.20;;;;;;;1.65;100.00;101862.91;5039383;28;20051;-78
2020/12/23 04:59:00;;;;;;;84.82;34.72;;;;;;;1.65;100.00;101862.06;5046657;28;20029;-78
2020/12/23 05:01:26;;;;;;;87.15;33.80;;;;;;;1.67;100.00;101862.78;5045960;28;20139;-79
2020/12/23 05:03:53;;;;;;;74.68;30.50;;;;;;;1.62;100.00;101865.75;5044626;28;20171;-79
2020/12/23 05:06:19;;;;;;;77.18;30.10;;;;;;;1.63;100.00;101864.78;5046161;28;20037;-80
2020/12/23 05:08:44;;;;;;;74.43;30.88;;;;;;;1.65;100.00;101869.91;5047673;28;20106;-78
2020/12/23 05:11:11;;;;;;;71.72;30.90;;;;;;;1.66;100.00;101868.97;5042178;28;20482;-79
2020/12/23 05:13:38;;;;;;;82.68;30.45;;;;;;;1.64;100.00;101860.41;5046254;28;20044;-80
2020/12/23 05:16:05;;;;;;;70.78;28.00;;;;;;;1.68;100.00;101869.69;5041753;28;20435;-78
2020/12/23 05:18:35;;;;;;;84.72;36.45;;;;;;;1.70;100.00;101873.84;5041570;28;20574;-79
2020/12/23 05:21:02;;;;;;;80.28;34.92;;;;;;;1.63;100.00;101877.88;5048078;28;20374;-79
2020/12/23 05:23:31;;;;;;;70.72;28.13;;;;;;;1.58;100.00;101870.41;5044861;28;20036;-79
2020/12/23 05:26:04;;;;;;;67.43;28.98;;;;;;;1.54;100.00;101870.75;5042778;28;20117;-79
2020/12/23 05:28:31;;;;;;;70.00;28.08;;;;;;;1.63;100.00;101879.66;5042298;28;20106;-78
2020/12/23 05:30:57;;;;;;;73.32;31.40;;;;;;;1.62;100.00;101885.88;5046042;28;20039;-79
2020/12/23 05:33:24;;;;;;;81.28;33.35;;;;;;;1.55;100.00;101893.38;5045858;28;20033;-79
2020/12/23 05:35:55;;;;;;;71.85;28.08;;;;;;;1.53;100.00;101892.66;5047789;28;20381;-79
2020/12/23 05:38:20;;;;;;;64.50;25.73;;;;;;;1.60;100.00;101891.22;5042569;28;20501;-79
2020/12/23 05:40:46;;;;;;;63.70;25.73;;;;;;;1.63;100.00;101898.84;5045077;28;20121;-79
2020/12/23 05:43:13;;;;;;;63.42;25.10;;;;;;;1.68;100.00;101906.34;5046272;28;20032;-79
2020/12/23 05:45:42;;;;;;;60.83;25.00;;;;;;;1.67;100.00;101894.22;5044854;28;20029;-78
2020/12/23 05:48:16;;;;;;;63.83;27.55;;;;;;;1.69;100.00;101897.53;5044011;28;20068;-78
2020/12/23 05:50:42;;;;;;;67.25;27.15;;;;;;;1.66;100.00;101906.44;5041145;28;20406;-78
2020/12/23 05:53:13;;;;;;;72.00;29.17;;;;;;;1.66;100.00;101903.84;5042706;28;20048;-79
2020/12/23 05:55:50;;;;;;;73.93;34.95;;;;;;;1.72;100.00;101908.59;5042711;28;20461;-78
2020/12/23 05:58:27;;;;;;;72.38;31.70;;;;;;;1.64;100.00;101900.53;5046125;28;20723;-79
2020/12/23 06:00:55;;;;;;;67.53;28.35;;;;;;;2.42;100.00;101910.09;5036789;28;20037;-79
2020/12/23 06:03:21;;;;;;;114.60;55.60;;;;;;;1.73;100.00;101912.91;5044817;28;20397;-79
2020/12/23 06:06:00;;;;;;;116.78;52.28;;;;;;;1.74;100.00;101909.31;5042360;28;20037;-79
2020/12/23 06:08:34;;;;;;;117.32;47.65;;;;;;;1.72;100.00;101900.75;5038894;28;20044;-78
2020/12/23 06:11:12;;;;;;;122.07;50.47;;;;;;;1.68;100.00;101904.56;5025884;28;20048;-79
2020/12/23 06:14:10;;;;;;;158.35;72.07;;;;;;;1.69;100.00;101905.38;5042918;28;20043;-79
2020/12/23 06:16:46;;;;;;;102.18;46.15;;;;;;;1.68;100.00;101906.34;5030671;28;20484;-79
2020/12/23 06:19:30;;;;;;;105.85;46.28;;;;;;;1.76;100.00;101912.66;5034966;28;20099;-79
2020/12/23 06:21:59;;;;;;;103.47;45.35;;;;;;;1.84;100.00;101905.03;5038925;28;20040;-79
2020/12/23 06:24:27;;;;;;;104.65;46.42;;;;;;;1.86;100.00;101904.91;5036072;28;20025;-78
2020/12/23 06:26:55;;;;;;;105.70;46.65;;;;;;;1.90;100.00;101910.75;5038776;28;20462;-77
2020/12/23 06:29:27;;;;;;;70.15;30.00;;;;;;;1.80;100.00;101901.00;5043797;28;20061;-78
2020/12/23 06:31:58;;;;;;;58.67;24.77;;;;;;;1.86;100.00;101901.47;5037347;28;20029;-78
2020/12/23 06:34:26;;;;;;;78.32;31.52;;;;;;;1.90;100.00;101895.84;5038990;28;20024;-78
2020/12/23 06:36:53;;;;;;;445.52;144.65;;;;;;;2.02;100.00;101888.81;5032727;28;20128;-78
2020/12/23 06:39:18;;;;;;;66.05;27.17;;;;;;;1.98;100.00;101903.94;5037577;28;20037;-79
2020/12/23 06:41:45;;;;;;;55.13;25.08;;;;;;;2.01;100.00;101897.63;5038213;28;20033;-78
2020/12/23 06:44:11;;;;;;;59.60;25.65;;;;;;;1.97;100.00;101904.09;5036816;28;20161;-78
2020/12/23 06:46:59;;;;;;;58.63;25.77;;;;;;;1.97;100.00;101915.41;5038348;28;20037;-80
2020/12/23 06:49:40;;;;;;;64.90;27.13;;;;;;;1.89;100.00;101919.56;5036035;28;20040;-78
2020/12/23 06:52:21;;;;;;;66.78;30.13;;;;;;;1.95;100.00;101911.22;5049182;28;20052;-78
2020/12/23 06:54:54;;;;;;;66.18;28.50;;;;;;;2.10;100.00;101909.19;5042159;28;20456;-77
2020/12/23 06:57:38;;;;;;;63.15;26.88;;;;;;;2.02;100.00;101915.84;5035713;28;20036;-81
2020/12/23 07:00:15;;;;;;;68.40;30.40;;;;;;;1.98;100.00;101910.97;5033730;28;20029;-78
2020/12/23 07:02:40;;;;;;;63.95;28.08;;;;;;;2.02;100.00;101913.22;5033006;28;20030;-78
2020/12/23 07:05:06;;;;;;;65.90;29.50;;;;;;;2.07;100.00;101907.63;5032962;28;20043;-77
2020/12/23 07:07:46;;;;;;;68.65;29.15;;;;;;;2.19;100.00;101904.03;5040989;28;20095;-81
2020/12/23 07:10:14;;;;;;;72.57;30.58;;;;;;;2.23;100.00;101908.06;5034996;28;20493;-81
2020/12/23 07:12:48;;;;;;;64.60;27.95;;;;;;;2.38;100.00;101895.53;5033372;28;20028;-79
2020/12/23 07:15:19;;;;;;;58.00;23.88;;;;;;;2.40;100.00;101892.81;5038870;28;20057;-80
2020/12/23 07:17:57;;;;;;;66.68;28.38;;;;;;;2.47;100.00;101886.09;5040527;28;20021;-79
2020/12/23 07:20:24;;;;;;;58.95;24.25;;;;;;;2.44;100.00;101884.53;5052318;28;20029;-79
2020/12/23 07:22:52;;;;;;;58.92;25.15;;;;;;;2.43;100.00;101879.44;5046320;28;20035;-80
2020/12/23 07:25:27;;;;;;;82.95;38.92;;;;;;;2.57;100.00;101873.88;5040369;28;20029;-81
2020/12/23 07:27:58;;;;;;;66.70;29.02;;;;;;;2.49;100.00;101878.94;5042982;28;20040;-78
2020/12/23 07:30:26;;;;;;;60.33;25.65;;;;;;;2.79;100.00;101870.34;5039908;28;20021;-79
2020/12/23 07:33:24;;;;;;;52.88;23.48;;;;;;;2.65;100.00;101878.50;5039583;28;20625;-78
2020/12/23 07:35:51;;;;;;;52.20;24.17;;;;;;;2.82;100.00;101885.84;5042390;28;20089;-77
2020/12/23 07:38:18;;;;;;;52.15;23.00;;;;;;;2.88;100.00;101885.34;5043780;28;20116;-79
2020/12/23 07:40:44;;;;;;;46.53;19.67;;;;;;;2.75;100.00;101882.91;5054808;28;20036;-79
2020/12/23 07:43:12;;;;;;;45.95;19.55;;;;;;;2.76;100.00;101888.97;5040043;28;20033;-79
2020/12/23 07:45:39;;;;;;;47.17;21.25;;;;;;;2.79;100.00;101875.59;5043739;28;20832;-81
2020/12/23 07:48:07;;;;;;;47.88;21.38;;;;;;;2.68;100.00;101870.38;5073459;23;20049;-86
2020/12/23 07:50:40;;;;;;;47.95;20.13;;;;;;;3.02;100.00;101868.41;4987207;28;20164;-88
2020/12/23 07:53:20;;;;;;;43.33;18.70;;;;;;;2.88;100.00;101874.84;5015883;28;20048;-86
2020/12/23 07:55:54;;;;;;;45.17;19.92;;;;;;;3.24;100.00;101867.47;5012953;28;20056;-86
2020/12/23 07:58:20;;;;;;;36.95;17.23;;;;;;;3.13;98.75;101872.78;5048155;28;20037;-86
2020/12/23 08:00:45;;;;;;;40.72;17.25;;;;;;;3.30;99.89;101877.44;5048078;28;20120;-86
2020/12/23 08:03:12;;;;;;;35.03;15.13;;;;;;;3.75;96.16;101885.00;5048141;28;20055;-87
2020/12/23 08:05:39;;;;;;;36.50;16.38;;;;;;;3.79;96.60;101889.00;5015734;28;20041;-85
2020/12/23 08:08:10;;;;;;;39.30;16.17;;;;;;;3.39;96.13;101892.44;5045082;28;20102;-86
2020/12/23 08:10:35;;;;;;;38.58;18.52;;;;;;;3.88;92.54;101895.25;5050778;28;20039;-87
2020/12/23 08:13:05;;;;;;;37.03;16.60;;;;;;;3.76;90.79;101898.97;5052300;28;20029;-86
2020/12/23 08:15:32;;;;;;;35.97;15.93;;;;;;;3.69;91.86;101901.25;5049163;28;20532;-84
2020/12/23 08:18:03;;;;;;;36.55;16.08;;;;;;;3.39;93.48;101899.47;5067399;28;20021;-86
2020/12/23 08:20:30;;;;;;;40.72;17.73;;;;;;;3.93;91.70;101895.69;5036112;28;20040;-86
2020/12/23 08:23:00;;;;;;;38.38;17.20;;;;;;;3.86;90.98;101889.31;5052390;28;20434;-86
2020/12/23 08:25:28;;;;;;;35.13;16.83;;;;;;;3.54;90.77;101886.81;5064686;28;20487;-86
2020/12/23 08:27:56;;;;;;;34.78;16.85;;;;;;;3.54;92.01;101894.69;5058264;28;20030;-86
2020/12/23 08:30:29;;;;;;;34.35;15.55;;;;;;;3.99;91.66;101889.88;5031683;28;20457;-85
2020/12/23 08:33:02;;;;;;;35.88;16.88;;;;;;;3.63;94.44;101889.50;5030474;28;20041;-86
2020/12/23 08:35:32;;;;;;;31.27;14.95;;;;;;;3.62;90.37;101885.19;5051464;28;20457;-86
2020/12/23 08:37:57;;;;;;;35.13;16.00;;;;;;;3.33;92.30;101882.44;5046202;28;20094;-86
2020/12/23 08:40:23;;;;;;;32.90;14.30;;;;;;;3.62;91.20;101873.84;5048044;28;20535;-86
2020/12/23 08:43:07;;;;;;;27.98;12.65;;;;;;;4.22;89.07;101866.84;5051318;28;20510;-86
2020/12/23 08:45:33;;;;;;;27.30;12.50;;;;;;;4.72;87.53;101861.47;5049600;28;20028;-86
2020/12/23 08:47:58;;;;;;;32.58;14.18;;;;;;;5.37;83.08;101847.59;5063114;28;20052;-87
2020/12/23 08:50:28;;;;;;;34.90;14.80;;;;;;;5.39;85.01;101829.84;5038756;28;20028;-87
2020/12/23 08:52:54;;;;;;;28.42;13.90;;;;;;;5.57;81.53;101835.16;5051855;28;20020;-87
2020/12/23 08:55:26;;;;;;;25.00;11.77;;;;;;;5.59;83.24;101822.69;5047385;28;20042;-87
2020/12/23 08:58:06;;;;;;;40.55;17.23;;;;;;;6.04;81.99;101824.53;5053763;28;20109;-86
2020/12/23 09:00:32;;;;;;;39.67;15.60;;;;;;;6.15;83.21;101819.06;5072974;28;20052;-87
2020/12/23 09:02:58;;;;;;;28.83;14.30;;;;;;;6.60;79.69;101812.88;5042124;28;20041;-87
2020/12/23 09:05:27;;;;;;;27.90;12.95;;;;;;;6.06;79.92;101815.50;5039493;28;20033;-87
2020/12/23 09:08:07;;;;;;;28.67;14.60;;;;;;;7.26;76.47;101799.09;5053190;28;20119;-87
2020/12/23 09:10:34;;;;;;;32.58;13.75;;;;;;;7.03;77.56;101800.63;5055461;28;20016;-87
2020/12/23 09:13:30;;;;;;;26.15;13.15;;;;;;;5.87;80.23;101811.16;5051331;28;20021;-87
2020/12/23 09:16:16;;;;;;;30.33;14.00;;;;;;;6.00;81.01;101815.28;5056855;28;20391;-87
2020/12/23 09:18:52;;;;;;;31.05;15.48;;;;;;;6.17;82.64;101817.94;5055754;28;20039;-86
2020/12/23 09:21:23;;;;;;;29.95;14.27;;;;;;;4.82;87.47;101808.81;5054827;28;20021;-85
2020/12/23 09:23:49;;;;;;;32.40;15.27;;;;;;;4.94;87.55;101807.66;5051668;28;20035;-87
2020/12/23 09:26:18;;;;;;;29.63;12.90;;;;;;;6.07;85.54;101803.97;5054120;28;20115;-87
2020/12/23 09:28:46;;;;;;;27.10;12.20;;;;;;;5.68;84.72;101816.53;5050101;28;20024;-87
2020/12/23 09:31:13;;;;;;;30.48;14.35;;;;;;;5.45;84.30;101806.38;5072215;28;20446;-86
2020/12/23 09:33:43;;;;;;;33.30;15.85;;;;;;;4.71;88.42;101793.16;5045952;28;20117;-86
2020/12/23 09:36:08;;;;;;;32.85;15.48;;;;;;;5.43;86.28;101789.88;5069869;28;20025;-87
2020/12/23 09:38:36;;;;;;;33.08;14.15;;;;;;;5.03;89.91;101783.13;5037553;28;20024;-86
2020/12/23 09:41:04;;;;;;;30.52;13.73;;;;;;;5.23;88.73;101778.63;5020446;28;20025;-86
2020/12/23 09:43:33;;;;;;;31.52;14.55;;;;;;;5.48;86.45;101776.28;5045591;28;20021;-87
2020/12/23 09:46:02;;;;;;;28.92;13.57;;;;;;;5.37;87.96;101764.13;5053624;28;20394;-88
2020/12/23 09:48:29;;;;;;;35.50;16.10;;;;;;;5.09;88.01;101762.44;5048865;28;20853;-87
2020/12/23 09:50:55;;;;;;;30.38;13.52;;;;;;;4.94;88.92;101755.00;5049760;28;20036;-88
2020/12/23 09:53:24;;;;;;;34.17;15.27;;;;;;;5.53;87.70;101755.56;5034199;28;20068;-87
2020/12/23 09:55:50;;;;;;;34.60;16.40;;;;;;;5.10;89.68;101761.47;5052387;28;20032;-86
2020/12/23 09:58:19;;;;;;;35.42;16.48;;;;;;;4.90;87.79;101752.78;5032939;28;20506;-86
2020/12/23 10:00:49;;;;;;;35.28;14.45;;;;;;;5.22;89.45;101747.13;5051409;28;20498;-87
2020/12/23 10:03:15;;;;;;;35.03;16.10;;;;;;;5.30;88.48;101754.31;5053027;28;20085;-87
2020/12/23 10:05:41;;;;;;;38.03;14.75;;;;;;;5.00;90.13;101743.06;5029052;28;20037;-87
2020/12/23 10:08:07;;;;;;;39.95;17.05;;;;;;;4.81;91.99;101741.31;5026601;28;20040;-86
2020/12/23 10:10:35;;;;;;;33.05;15.43;;;;;;;5.59;89.57;101735.72;5048571;28;20021;-86
2020/12/23 10:13:01;;;;;;;42.47;19.38;;;;;;;5.43;89.21;101731.91;5041761;28;20040;-86
2020/12/23 10:15:26;;;;;;;44.00;18.83;;;;;;;5.18;92.69;101732.63;5030516;28;20033;-87
2020/12/23 10:17:53;;;;;;;38.63;17.90;;;;;;;5.04;91.27;101742.63;5050449;28;20040;-86
2020/12/23 10:20:19;;;;;;;34.53;15.70;;;;;;;5.82;90.40;101738.75;5042065;28;20490;-88
2020/12/23 10:22:45;;;;;;;40.92;17.58;;;;;;;5.33;92.46;101738.22;5049833;28;20035;-90
2020/12/23 10:25:10;;;;;;;35.30;15.77;;;;;;;5.64;93.41;101747.47;5047693;28;20036;-84
2020/12/23 10:27:36;;;;;;;38.80;16.75;;;;;;;6.30;86.45;101735.75;5051436;28;20568;-87
2020/12/23 10:30:05;;;;;;;38.45;16.88;;;;;;;5.23;91.51;101730.34;5052695;28;20499;-87
2020/12/23 10:32:31;;;;;;;36.45;14.75;;;;;;;5.05;94.47;101738.19;5051179;28;20060;-86
2020/12/23 10:34:58;;;;;;;39.70;16.27;;;;;;;5.03;94.15;101742.78;5051638;28;20490;-87
2020/12/23 10:37:25;;;;;;;37.90;15.70;;;;;;;4.71;95.64;101748.41;5050051;28;20024;-86
2020/12/23 10:39:50;;;;;;;35.85;15.23;;;;;;;4.79;94.63;101738.03;5043908;28;20028;-87
2020/12/23 10:42:28;;;;;;;39.35;14.82;;;;;;;4.80;96.53;101731.78;5049242;28;20029;-86
2020/12/23 10:48:30;;;;;;;42.90;15.38;;;;;;;4.86;96.21;101743.53;5061003;23;20060;-74
2020/12/23 10:50:58;;;;;;;37.63;14.93;;;;;;;4.86;95.60;101749.63;5034629;28;20033;-74
2020/12/23 10:53:23;;;;;;;40.85;17.65;;;;;;;4.86;97.53;101741.72;5041698;28;20064;-76
2020/12/23 10:55:49;;;;;;;49.90;21.30;;;;;;;4.92;96.50;101738.53;5052140;28;20060;-77
2020/12/23 10:58:14;;;;;;;44.10;20.48;;;;;;;4.53;98.21;101741.25;5035239;28;20021;-76
2020/12/23 11:00:40;;;;;;;40.80;15.80;;;;;;;4.95;98.21;101735.59;5044168;28;20524;-73
2020/12/23 11:03:06;;;;;;;44.00;18.50;;;;;;;4.75;97.82;101737.47;5030943;28;20032;-75
2020/12/23 11:05:31;;;;;;;43.63;18.15;;;;;;;4.87;97.42;101739.91;5029701;28;20056;-74
2020/12/23 11:07:57;;;;;;;43.65;18.90;;;;;;;4.96;97.70;101737.28;5028450;28;20032;-74
2020/12/23 11:10:22;;;;;;;41.70;17.02;;;;;;;4.89;98.17;101737.97;5032587;28;20673;-76
2020/12/23 11:12:49;;;;;;;41.75;16.77;;;;;;;5.32;97.29;101742.63;5035674;28;20013;-76
2020/12/23 11:15:15;;;;;;;47.50;17.02;;;;;;;5.09;97.57;101739.56;5051942;28;20781;-76
2020/12/23 11:17:41;;;;;;;42.55;16.20;;;;;;;4.87;99.26;101732.03;5030972;28;20120;-75